Egin, Idaho
Current Conditions -  °F | °C
As of 7:53 AM on Monday 22 Dec 2014 (Local Time) from KRXE Reporting Station
Scattered Clouds Scattered Clouds  
Wind Chill: 22°   Ceiling: Unl
Heat Index: 30°   Visibility: 10mi
Dew Point: 29°   Wind: 8mph
Humidity: 96%   Direction: 190°S
Pressure: 29.93"   Gusts: NA
Location:  44.2887°N, 111.507°W
Report Text: KRXE 221453Z AUTO 19007KT 10SM SCT007 M01/M02 A2993 RMK AO2 SLP152 T10111017 51003
Loading
Personal Weather Stations






























Interactive Weather Map New forecast layout! Learn more

10-Day Weather Forecast

Advertisements
Track Severe Weather on mobile